createdAt,value
2019-03-12T00:04:28.901Z,84.07
2019-03-12T00:09:27.853Z,84.54
2019-03-12T00:14:27.883Z,84.05
2019-03-12T00:19:28.849Z,84.83
2019-03-12T00:24:27.790Z,84.92
2019-03-12T00:29:27.309Z,85.22
2019-03-12T00:34:26.280Z,85.32
2019-03-12T00:39:25.225Z,85.06
2019-03-12T00:44:24.845Z,85.47
2019-03-12T00:49:26.127Z,85.35
2019-03-12T00:54:25.079Z,85.48
2019-03-12T00:59:25.918Z,85.51
2019-03-12T01:04:25.837Z,85.30
2019-03-12T01:09:27.075Z,84.91
2019-03-12T01:14:26.833Z,85.81
2019-03-12T01:19:25.876Z,85.31
2019-03-12T01:24:26.041Z,85.57
2019-03-12T01:29:25.078Z,85.70
2019-03-12T01:34:25.884Z,85.43
2019-03-12T01:39:25.863Z,85.99
2019-03-12T01:44:24.873Z,86.37
2019-03-12T01:49:24.848Z,86.91
2019-03-12T01:54:24.935Z,87.39
2019-03-12T01:59:25.091Z,87.19
2019-03-12T02:04:24.299Z,87.44
2019-03-12T02:09:24.911Z,86.99
2019-03-12T02:14:26.078Z,86.91
2019-03-12T02:19:25.244Z,86.90
2019-03-12T02:24:26.059Z,87.35
2019-03-12T02:29:26.937Z,87.28
2019-03-12T02:34:25.875Z,86.93
2019-03-12T02:39:26.155Z,87.34
2019-03-12T02:44:25.932Z,86.81
2019-03-12T02:49:24.952Z,86.36
2019-03-12T02:54:25.021Z,86.34
2019-03-12T02:59:25.422Z,86.72
2019-03-12T03:04:24.877Z,86.08
2019-03-12T03:09:25.103Z,86.05
2019-03-12T03:14:24.309Z,86.02
2019-03-12T03:19:23.007Z,85.84
2019-03-12T03:24:22.945Z,85.51
2019-03-12T03:29:21.930Z,85.94
2019-03-12T03:34:27.753Z,86.14
2019-03-12T03:39:21.156Z,86.15
2019-03-12T03:44:20.961Z,86.24
2019-03-12T03:49:19.895Z,85.91
2019-03-12T03:54:20.246Z,87.03
2019-03-12T03:59:19.090Z,86.80
2019-03-12T04:04:20.170Z,86.58
2019-03-12T04:09:19.969Z,85.88
2019-03-12T04:14:20.010Z,85.48
2019-03-12T04:19:21.178Z,84.30
2019-03-12T04:24:20.943Z,83.73
2019-03-12T04:29:20.205Z,83.23
2019-03-12T04:34:19.376Z,82.83
2019-03-12T04:39:19.232Z,82.71
2019-03-12T04:44:17.936Z,82.27
2019-03-12T04:59:19.063Z,81.78
2019-03-12T05:04:18.314Z,81.86
2019-03-12T05:09:18.987Z,81.29
2019-03-12T05:14:19.014Z,81.23
2019-03-12T05:19:18.148Z,81.72
2019-03-12T05:24:18.005Z,81.59
2019-03-12T05:29:18.016Z,81.52
2019-03-12T05:34:17.256Z,81.55
2019-03-12T05:39:17.666Z,81.41
2019-03-12T05:44:17.475Z,81.07
2019-03-12T05:49:17.112Z,81.50
2019-03-12T05:54:16.041Z,81.31
2019-03-12T05:59:16.215Z,81.05
2019-03-12T06:04:16.333Z,80.94
2019-03-12T06:09:16.299Z,80.66
2019-03-12T06:14:16.069Z,81.02
2019-03-12T06:19:15.190Z,81.09
2019-03-12T06:24:16.086Z,81.29
2019-03-12T06:29:16.074Z,81.49
2019-03-12T06:34:16.059Z,81.62
2019-03-12T06:39:16.463Z,81.63
2019-03-12T06:44:16.172Z,81.55
2019-03-12T06:49:16.050Z,81.02
2019-03-12T06:54:15.038Z,81.22
2019-03-12T06:59:14.308Z,80.75
2019-03-12T07:04:13.112Z,80.75
2019-03-12T07:09:13.370Z,80.20
2019-03-12T07:14:13.061Z,79.65
2019-03-12T07:19:12.410Z,79.33
2019-03-12T07:24:13.122Z,79.57
2019-03-12T07:29:11.125Z,78.58
2019-03-12T07:34:11.111Z,79.06
2019-03-12T07:39:11.295Z,78.90
2019-03-12T07:44:11.087Z,78.39
2019-03-12T07:49:10.140Z,78.21
2019-03-12T07:54:10.087Z,77.83
2019-03-12T07:59:09.644Z,77.21
2019-03-12T08:04:09.355Z,76.79
2019-03-12T08:09:09.300Z,76.57
2019-03-12T08:14:08.122Z,76.04
2019-03-12T08:19:07.362Z,75.97
2019-03-12T08:24:06.522Z,75.33
2019-03-12T08:29:05.166Z,74.88
2019-03-12T08:34:04.182Z,75.18
2019-03-12T08:39:04.324Z,74.17
2019-03-12T08:44:03.342Z,74.37
2019-03-12T08:49:03.196Z,74.20
2019-03-12T08:54:02.303Z,73.35
2019-03-12T08:59:03.427Z,73.27
2019-03-12T09:04:02.269Z,72.79
2019-03-12T09:09:02.191Z,72.37
2019-03-12T09:14:02.352Z,72.57
2019-03-12T09:19:02.312Z,71.31
2019-03-12T09:24:01.184Z,71.56
2019-03-12T09:29:01.421Z,70.35
2019-03-12T09:34:01.113Z,70.16
2019-03-12T09:39:01.676Z,69.70
2019-03-12T09:44:01.382Z,69.87
2019-03-12T09:49:01.132Z,69.18
2019-03-12T09:54:00.232Z,69.23
2019-03-12T09:59:00.245Z,68.58
2019-03-12T10:04:00.347Z,67.61
2019-03-12T10:09:00.191Z,67.61
2019-03-12T10:14:00.227Z,67.18
2019-03-12T10:18:59.163Z,66.69
2019-03-12T10:23:58.408Z,65.88
2019-03-12T10:28:58.297Z,65.09
2019-03-12T10:33:58.328Z,66.49
2019-03-12T10:38:57.526Z,62.74
2019-03-12T10:43:56.601Z,63.27
2019-03-12T10:48:56.199Z,63.69
2019-03-12T10:53:55.657Z,63.75
2019-03-12T10:58:56.225Z,61.72
2019-03-12T11:03:55.183Z,60.22
2019-03-12T11:08:55.252Z,61.45
2019-03-12T11:13:56.418Z,61.36
2019-03-12T11:18:56.217Z,59.88
2019-03-12T11:23:56.328Z,59.19
2019-03-12T11:28:55.193Z,57.43
2019-03-12T11:33:54.228Z,56.61
2019-03-12T11:38:54.315Z,56.82
2019-03-12T11:43:55.282Z,56.50
2019-03-12T11:48:55.292Z,57.67
2019-03-12T11:53:55.249Z,54.94
2019-03-12T11:58:55.209Z,55.48
2019-03-12T12:03:54.469Z,54.46
2019-03-12T12:08:54.195Z,55.59
2019-03-12T12:13:54.205Z,55.28
2019-03-12T12:18:54.205Z,53.84
2019-03-12T12:23:54.956Z,52.32
2019-03-12T12:28:53.209Z,52.72
2019-03-12T12:33:53.447Z,53.04
2019-03-12T12:38:52.233Z,52.79
2019-03-12T12:43:51.205Z,50.04
2019-03-12T12:48:53.186Z,52.62
2019-03-12T12:53:49.594Z,51.13
2019-03-12T12:58:48.342Z,51.60
2019-03-12T13:03:47.604Z,52.43
2019-03-12T13:08:46.460Z,51.11
2019-03-12T13:13:46.361Z,51.86
2019-03-12T13:18:45.244Z,51.19
2019-03-12T13:23:44.176Z,52.29
2019-03-12T13:28:45.015Z,52.74
2019-03-12T13:33:43.179Z,50.21
2019-03-12T13:38:46.063Z,51.76
2019-03-12T13:43:43.236Z,52.12
2019-03-12T13:48:43.234Z,51.73
2019-03-12T13:53:43.218Z,50.37
2019-03-12T13:58:42.289Z,50.30
2019-03-12T14:03:41.255Z,50.38
2019-03-12T14:08:42.263Z,49.67
2019-03-12T14:13:41.491Z,50.46
2019-03-12T14:18:42.602Z,48.38
2019-03-12T14:23:41.237Z,48.70
2019-03-12T14:28:41.353Z,49.47
2019-03-12T14:33:41.592Z,49.47
2019-03-12T14:38:40.563Z,50.01
2019-03-12T14:43:40.295Z,47.45
2019-03-12T14:48:40.338Z,50.00
2019-03-12T14:53:39.548Z,49.45
2019-03-12T14:58:39.263Z,50.15
2019-03-12T15:03:39.436Z,50.60
2019-03-12T15:08:39.391Z,50.74
2019-03-12T15:13:38.271Z,50.66
2019-03-12T15:18:38.213Z,50.89
2019-03-12T15:23:37.321Z,51.52
2019-03-12T15:28:38.522Z,50.75
2019-03-12T15:33:38.266Z,49.40
2019-03-12T15:38:38.249Z,50.19
2019-03-12T15:43:38.268Z,50.64
2019-03-12T15:48:40.721Z,50.25
2019-03-12T15:53:39.271Z,50.27
2019-03-12T15:58:39.278Z,51.10
2019-03-12T16:03:41.745Z,51.33
2019-03-12T16:08:39.260Z,52.02
2019-03-12T16:13:39.252Z,50.23
2019-03-12T16:18:38.279Z,52.34
2019-03-12T16:23:38.252Z,50.50
2019-03-12T16:28:37.438Z,51.67
2019-03-12T16:33:37.369Z,51.79
2019-03-12T16:38:37.475Z,50.47
2019-03-12T16:43:37.525Z,50.61
2019-03-12T16:48:38.598Z,49.05
2019-03-12T16:53:36.702Z,47.48
2019-03-12T16:58:36.526Z,48.27
2019-03-12T17:03:36.249Z,46.59
2019-03-12T17:08:35.328Z,45.34
2019-03-12T17:13:35.530Z,47.45
2019-03-12T17:18:34.375Z,47.96
2019-03-12T17:23:35.378Z,46.26
2019-03-12T17:28:35.258Z,46.46
2019-03-12T17:33:34.253Z,46.84
2019-03-12T17:38:45.918Z,45.86
2019-03-12T17:43:34.233Z,45.67
2019-03-12T17:48:35.290Z,45.87
2019-03-12T17:53:35.307Z,46.81
2019-03-12T17:58:34.462Z,45.75
2019-03-12T18:03:35.594Z,44.87
2019-03-12T18:08:36.311Z,43.99
2019-03-12T18:13:36.403Z,44.62
2019-03-12T18:18:35.349Z,44.81
2019-03-12T18:23:34.390Z,44.58
2019-03-12T18:28:35.546Z,45.89
2019-03-12T18:33:35.305Z,46.01
2019-03-12T18:38:35.346Z,44.16
2019-03-12T18:43:35.424Z,44.48
2019-03-12T18:48:35.344Z,43.84
2019-03-12T18:53:34.435Z,44.03
2019-03-12T18:58:33.330Z,43.67
2019-03-12T19:03:34.299Z,42.02
2019-03-12T19:08:34.344Z,42.70
2019-03-12T19:13:34.464Z,43.38
2019-03-12T19:18:34.373Z,43.79
2019-03-12T19:23:34.364Z,43.22
2019-03-12T19:28:33.670Z,44.05
2019-03-12T19:33:33.315Z,44.79
2019-03-12T19:38:33.349Z,47.11
2019-03-12T19:43:33.392Z,50.94
2019-03-12T19:48:32.313Z,53.39
2019-03-12T19:53:32.294Z,56.13
2019-03-12T19:58:32.439Z,57.89
2019-03-12T20:03:32.420Z,58.51
2019-03-12T20:08:31.720Z,58.99
2019-03-12T20:13:31.531Z,59.55
2019-03-12T20:18:31.386Z,60.84
2019-03-12T20:23:31.441Z,61.10
2019-03-12T20:28:30.495Z,62.25
2019-03-12T20:33:31.456Z,63.12
2019-03-12T20:38:30.556Z,63.13
2019-03-12T20:43:30.494Z,62.90
2019-03-12T20:48:30.335Z,62.39
2019-03-12T20:53:30.406Z,60.88
2019-03-12T20:58:30.332Z,60.44
2019-03-12T21:03:30.366Z,60.61
2019-03-12T21:08:29.696Z,59.57
2019-03-12T21:13:29.345Z,59.76
2019-03-12T21:18:28.508Z,60.62
2019-03-12T21:23:29.377Z,63.56
2019-03-12T21:28:30.377Z,65.48
2019-03-12T21:33:31.455Z,70.59
2019-03-12T21:38:30.352Z,75.25
2019-03-12T21:43:31.363Z,75.99
2019-03-12T21:48:30.804Z,76.62
2019-03-12T21:53:31.558Z,77.83
2019-03-12T21:58:31.499Z,77.97
2019-03-12T22:03:30.349Z,78.73
2019-03-12T22:08:30.848Z,79.63
2019-03-12T22:13:30.914Z,80.59
2019-03-12T22:18:30.913Z,79.90
2019-03-12T22:23:30.904Z,81.06
2019-03-12T22:28:31.942Z,81.18
2019-03-12T22:33:31.967Z,81.03
2019-03-12T22:38:31.899Z,81.31
2019-03-12T22:43:31.944Z,81.57
2019-03-12T22:48:31.886Z,81.39
2019-03-12T22:53:31.925Z,81.19
2019-03-12T22:58:31.396Z,81.13
2019-03-12T23:03:31.046Z,80.78
2019-03-12T23:08:30.922Z,80.99
2019-03-12T23:13:29.949Z,80.15
2019-03-12T23:18:29.394Z,80.41
2019-03-12T23:23:28.980Z,79.81
2019-03-12T23:28:30.021Z,79.34
2019-03-12T23:33:29.074Z,79.87
2019-03-12T23:38:28.959Z,80.16
2019-03-12T23:43:27.938Z,79.91
2019-03-12T23:48:28.063Z,80.09
2019-03-12T23:53:27.994Z,79.62
2019-03-12T23:58:27.064Z,79.58
